createdAt,value
2022-11-14T00:00:49.754Z,100.00
2022-11-14T00:03:38.225Z,100.00
2022-11-14T00:06:26.657Z,100.00
2022-11-14T00:09:15.083Z,100.00
2022-11-14T00:12:03.528Z,100.00
2022-11-14T00:14:52.990Z,100.00
2022-11-14T00:17:43.019Z,100.00
2022-11-14T00:20:31.417Z,100.00
2022-11-14T00:23:20.307Z,100.00
2022-11-14T00:26:08.770Z,100.00
2022-11-14T00:28:57.218Z,100.00
2022-11-14T00:31:45.676Z,100.00
2022-11-14T00:34:35.452Z,100.00
2022-11-14T00:37:23.896Z,100.00
2022-11-14T00:40:14.527Z,100.00
2022-11-14T00:43:02.972Z,100.00
2022-11-14T00:45:51.423Z,100.00
2022-11-14T00:48:39.907Z,100.00
2022-11-14T00:51:29.706Z,100.00
2022-11-14T00:54:18.181Z,100.00
2022-11-14T00:57:06.625Z,100.00
2022-11-14T00:59:55.822Z,100.00
2022-11-14T01:02:44.234Z,100.00
2022-11-14T01:05:37.046Z,100.00
2022-11-14T01:08:27.130Z,100.00
2022-11-14T01:11:17.967Z,100.00
2022-11-14T01:14:07.561Z,100.00
2022-11-14T01:16:55.992Z,100.00
2022-11-14T01:19:44.512Z,100.00
2022-11-14T01:22:33.082Z,100.00
2022-11-14T01:25:22.872Z,100.00
2022-11-14T01:28:14.536Z,100.00
2022-11-14T01:31:10.161Z,100.00
2022-11-14T01:33:58.581Z,100.00
2022-11-14T01:36:47.033Z,100.00
2022-11-14T01:39:35.468Z,100.00
2022-11-14T01:42:27.409Z,100.00
2022-11-14T01:45:44.291Z,100.00
2022-11-14T01:48:38.542Z,100.00
2022-11-14T01:51:30.294Z,100.00
2022-11-14T01:54:24.065Z,100.00
2022-11-14T01:57:14.047Z,100.00
2022-11-14T02:00:08.054Z,100.00
2022-11-14T02:02:57.258Z,100.00
2022-11-14T02:05:46.260Z,100.00
2022-11-14T02:08:35.463Z,100.00
2022-11-14T02:11:23.936Z,100.00
2022-11-14T02:14:12.612Z,100.00
2022-11-14T02:17:27.871Z,100.00
2022-11-14T02:20:21.073Z,100.00
2022-11-14T02:23:10.089Z,100.00
2022-11-14T02:25:58.884Z,100.00
2022-11-14T02:28:47.363Z,100.00
2022-11-14T02:31:36.149Z,100.00
2022-11-14T02:34:24.588Z,100.00
2022-11-14T02:37:14.409Z,100.00
2022-11-14T02:40:02.836Z,100.00
2022-11-14T02:42:51.313Z,100.00
2022-11-14T02:45:39.742Z,100.00
2022-11-14T02:48:28.514Z,100.00
2022-11-14T02:51:17.211Z,100.00
2022-11-14T02:54:07.062Z,100.00
2022-11-14T02:56:55.503Z,100.00
2022-11-14T02:59:43.939Z,100.00
2022-11-14T03:02:32.374Z,100.00
2022-11-14T03:05:20.947Z,100.00
2022-11-14T03:08:10.152Z,100.00
2022-11-14T03:11:05.210Z,100.00
2022-11-14T03:13:53.993Z,100.00
2022-11-14T03:16:42.419Z,100.00
2022-11-14T03:19:30.830Z,100.00
2022-11-14T03:22:19.245Z,100.00
2022-11-14T03:25:08.469Z,100.00
2022-11-14T03:27:58.236Z,100.00
2022-11-14T03:30:47.437Z,100.00
2022-11-14T03:33:36.592Z,100.00
2022-11-14T03:36:25.056Z,100.00
2022-11-14T03:39:13.524Z,100.00
2022-11-14T03:42:01.942Z,100.00
2022-11-14T03:44:51.717Z,100.00
2022-11-14T03:47:40.142Z,100.00
2022-11-14T03:50:28.588Z,100.00
2022-11-14T03:53:17.040Z,100.00
2022-11-14T03:56:06.065Z,100.00
2022-11-14T03:58:54.520Z,100.00
2022-11-14T04:01:44.322Z,100.00
2022-11-14T04:04:32.786Z,100.00
2022-11-14T04:07:21.259Z,100.00
2022-11-14T04:10:10.048Z,100.00
2022-11-14T04:12:58.465Z,100.00
2022-11-14T04:15:46.931Z,100.00
2022-11-14T04:18:36.726Z,100.00
2022-11-14T04:21:25.162Z,100.00
2022-11-14T04:24:13.585Z,100.00
2022-11-14T04:27:02.223Z,100.00
2022-11-14T04:29:50.655Z,100.00
2022-11-14T04:32:39.082Z,100.00
2022-11-14T04:35:28.860Z,100.00
2022-11-14T04:38:17.324Z,100.00
2022-11-14T04:41:06.282Z,100.00
2022-11-14T04:43:54.711Z,100.00
2022-11-14T04:46:43.127Z,100.00
2022-11-14T04:49:31.545Z,100.00
2022-11-14T04:52:21.358Z,100.00
2022-11-14T04:55:10.143Z,100.00
2022-11-14T04:57:59.337Z,100.00
2022-11-14T05:00:47.808Z,100.00
2022-11-14T05:03:36.280Z,100.00
2022-11-14T05:06:24.730Z,100.00
2022-11-14T05:09:14.548Z,100.00
2022-11-14T05:12:02.945Z,100.00
2022-11-14T05:14:51.377Z,100.00
2022-11-14T05:17:39.798Z,100.00
2022-11-14T05:20:28.283Z,100.00
2022-11-14T05:23:21.177Z,100.00
2022-11-14T05:26:12.557Z,100.00
2022-11-14T05:29:01.004Z,100.00
2022-11-14T05:31:49.443Z,100.00
2022-11-14T05:34:37.935Z,100.00
2022-11-14T05:37:26.344Z,100.00
2022-11-14T05:40:16.939Z,100.00
2022-11-14T05:43:06.952Z,100.00
2022-11-14T05:45:55.463Z,100.00
2022-11-14T05:48:44.147Z,100.00
2022-11-14T05:51:32.602Z,100.00
2022-11-14T05:54:21.062Z,100.00
2022-11-14T05:57:09.540Z,100.00
2022-11-14T05:59:59.779Z,100.00
2022-11-14T06:02:48.203Z,100.00
2022-11-14T06:05:37.428Z,100.00
2022-11-14T06:08:25.874Z,100.00
2022-11-14T06:11:16.062Z,100.00
2022-11-14T06:14:06.952Z,100.00
2022-11-14T06:17:00.489Z,100.00
2022-11-14T06:19:48.929Z,100.00
2022-11-14T06:22:37.356Z,100.00
2022-11-14T06:25:25.817Z,100.00
2022-11-14T06:28:14.253Z,100.00
2022-11-14T06:31:04.870Z,100.00
2022-11-14T06:33:54.870Z,100.00
2022-11-14T06:36:43.276Z,100.00
2022-11-14T06:39:31.719Z,100.00
2022-11-14T06:42:20.233Z,100.00
2022-11-14T06:45:09.652Z,100.00
2022-11-14T06:47:59.847Z,100.00
2022-11-14T06:50:54.208Z,100.00
2022-11-14T06:53:43.312Z,100.00
2022-11-14T06:56:31.722Z,100.00
2022-11-14T06:59:20.311Z,100.00
2022-11-14T07:02:15.397Z,100.00
2022-11-14T07:05:06.935Z,100.00
2022-11-14T07:07:58.457Z,100.00
2022-11-14T07:10:46.870Z,100.00
2022-11-14T07:13:35.994Z,100.00
2022-11-14T07:16:25.562Z,100.00
2022-11-14T07:19:13.982Z,100.00
2022-11-14T07:22:02.408Z,100.00
2022-11-14T07:24:52.181Z,100.00
2022-11-14T07:27:40.693Z,100.00
2022-11-14T07:30:29.352Z,100.00
2022-11-14T07:33:17.850Z,100.00
2022-11-14T07:36:06.798Z,100.00
2022-11-14T07:38:55.595Z,100.00
2022-11-14T07:41:45.618Z,100.00
2022-11-14T07:44:34.102Z,100.00
2022-11-14T07:47:22.602Z,100.00
2022-11-14T07:50:14.094Z,100.00
2022-11-14T07:53:04.766Z,100.00
2022-11-14T07:55:54.408Z,100.00
2022-11-14T07:58:44.199Z,100.00
2022-11-14T08:01:32.697Z,100.00
2022-11-14T08:04:21.227Z,100.00
2022-11-14T08:07:09.938Z,100.00
2022-11-14T08:09:58.578Z,100.00
2022-11-14T08:12:56.286Z,100.00
2022-11-14T08:15:54.920Z,100.00
2022-11-14T08:18:43.344Z,100.00
2022-11-14T08:21:31.781Z,100.00
2022-11-14T08:24:20.230Z,100.00
2022-11-14T08:27:08.671Z,100.00
2022-11-14T08:29:57.200Z,100.00
2022-11-14T08:32:47.112Z,100.00
2022-11-14T08:35:35.687Z,100.00
2022-11-14T08:38:24.138Z,100.00
2022-11-14T08:41:12.795Z,100.00
2022-11-14T08:44:01.295Z,100.00
2022-11-14T08:46:51.415Z,100.00
2022-11-14T08:49:41.266Z,100.00
2022-11-14T08:52:29.742Z,100.00
2022-11-14T08:55:18.444Z,100.00
2022-11-14T08:58:06.908Z,100.00
2022-11-14T09:00:55.400Z,100.00
2022-11-14T09:03:44.060Z,100.00
2022-11-14T09:06:33.991Z,100.00
2022-11-14T09:09:22.612Z,100.00
2022-11-14T09:12:11.084Z,100.00
2022-11-14T09:14:59.562Z,100.00
2022-11-14T09:17:48.129Z,100.00
2022-11-14T09:20:40.069Z,100.00
2022-11-14T09:23:30.890Z,100.00
2022-11-14T09:26:19.863Z,100.00
2022-11-14T09:29:08.852Z,100.00
2022-11-14T09:31:57.426Z,100.00
2022-11-14T09:34:45.901Z,100.00
2022-11-14T09:37:34.360Z,100.00
2022-11-14T09:40:24.209Z,100.00
2022-11-14T09:43:28.591Z,100.00
2022-11-14T09:46:21.685Z,100.00
2022-11-14T09:49:16.301Z,100.00
2022-11-14T09:52:15.091Z,100.00
2022-11-14T09:55:11.667Z,100.00
2022-11-14T09:58:02.305Z,100.00
2022-11-14T10:00:53.933Z,100.00
2022-11-14T10:03:51.198Z,100.00
2022-11-14T10:06:47.534Z,100.00
2022-11-14T10:09:51.592Z,100.00
2022-11-14T10:12:45.534Z,100.00
2022-11-14T10:15:38.611Z,100.00
2022-11-14T10:18:37.724Z,100.00
2022-11-14T10:21:36.953Z,100.00
2022-11-14T10:24:42.521Z,100.00
2022-11-14T10:27:33.028Z,100.00
2022-11-14T10:30:21.545Z,100.00
2022-11-14T10:33:21.136Z,100.00
2022-11-14T10:36:14.882Z,100.00
2022-11-14T10:39:09.088Z,100.00
2022-11-14T10:42:06.245Z,100.00
2022-11-14T10:45:02.345Z,100.00
2022-11-14T10:47:53.566Z,100.00
2022-11-14T10:50:47.510Z,100.00
2022-11-14T10:53:51.739Z,100.00
2022-11-14T10:56:47.684Z,100.00
2022-11-14T10:59:36.438Z,100.00
2022-11-14T11:02:25.098Z,100.00
2022-11-14T11:05:16.951Z,100.00
2022-11-14T11:08:43.327Z,100.00
2022-11-14T11:11:32.783Z,100.00
2022-11-14T11:14:21.274Z,100.00
2022-11-14T11:17:21.784Z,100.00
2022-11-14T11:20:29.070Z,100.00
2022-11-14T11:23:23.183Z,100.00
2022-11-14T11:26:18.907Z,100.00
2022-11-14T11:29:11.042Z,100.00
2022-11-14T11:32:00.234Z,100.00
2022-11-14T11:34:48.755Z,100.00
2022-11-14T11:37:40.863Z,100.00
2022-11-14T11:40:30.896Z,100.00
2022-11-14T11:43:41.865Z,100.00
2022-11-14T11:46:34.716Z,100.00
2022-11-14T11:49:30.352Z,100.00
2022-11-14T11:52:24.871Z,100.00
2022-11-14T11:55:17.855Z,100.00
2022-11-14T11:58:13.583Z,100.00
2022-11-14T12:01:02.251Z,100.00
2022-11-14T12:03:52.528Z,100.00
2022-11-14T12:06:45.706Z,100.00
2022-11-14T12:10:08.883Z,100.00
2022-11-14T12:13:02.914Z,100.00
2022-11-14T12:16:06.431Z,100.00
2022-11-14T12:19:17.158Z,100.00
2022-11-14T12:22:16.131Z,100.00
2022-11-14T12:25:30.831Z,100.00
2022-11-14T12:28:30.704Z,100.00
2022-11-14T12:31:20.641Z,100.00
2022-11-14T12:34:16.139Z,100.00
2022-11-14T12:37:09.719Z,100.00
2022-11-14T12:40:00.200Z,100.00
2022-11-14T12:42:49.277Z,100.00
2022-11-14T12:46:00.204Z,100.00
2022-11-14T12:48:49.976Z,100.00
2022-11-14T12:51:52.343Z,100.00
2022-11-14T12:54:45.479Z,100.00
2022-11-14T12:57:50.144Z,100.00
2022-11-14T13:00:40.997Z,100.00
2022-11-14T13:03:42.364Z,100.00
2022-11-14T13:06:44.062Z,100.00
2022-11-14T13:09:34.584Z,100.00
2022-11-14T13:12:49.359Z,100.00
2022-11-14T13:16:08.857Z,100.00
2022-11-14T13:19:32.250Z,100.00
2022-11-14T13:22:44.727Z,100.00
2022-11-14T13:25:33.262Z,100.00
2022-11-14T13:28:47.913Z,100.00
2022-11-14T13:31:48.452Z,100.00
2022-11-14T13:34:43.601Z,100.00
2022-11-14T13:37:45.204Z,100.00
2022-11-14T13:40:37.064Z,100.00
2022-11-14T13:43:34.056Z,100.00
2022-11-14T13:46:30.708Z,100.00
2022-11-14T13:49:34.058Z,100.00
2022-11-14T13:52:29.015Z,99.53
2022-11-14T13:55:24.062Z,99.71
2022-11-14T13:58:30.132Z,99.48
2022-11-14T14:01:32.590Z,99.18
2022-11-14T14:04:32.114Z,99.67
2022-11-14T14:07:26.363Z,99.81
2022-11-14T14:10:26.172Z,99.32
2022-11-14T14:13:33.172Z,100.00
2022-11-14T14:16:32.937Z,99.96
2022-11-14T14:19:26.099Z,100.00
2022-11-14T14:22:20.626Z,100.00
2022-11-14T14:25:16.497Z,100.00
2022-11-14T14:28:12.735Z,100.00
2022-11-14T14:31:11.336Z,100.00
2022-11-14T14:33:59.784Z,100.00
2022-11-14T14:36:52.289Z,100.00
2022-11-14T14:39:40.751Z,99.97
2022-11-14T14:42:35.316Z,99.61
2022-11-14T14:45:26.098Z,99.90
2022-11-14T14:48:16.071Z,99.86
2022-11-14T14:51:05.815Z,99.52
2022-11-14T14:53:54.604Z,99.84
2022-11-14T14:56:53.654Z,99.67
2022-11-14T14:59:42.207Z,99.64
2022-11-14T15:02:32.090Z,100.00
2022-11-14T15:05:24.568Z,100.00
2022-11-14T15:08:15.387Z,100.00
2022-11-14T15:11:04.704Z,100.00
2022-11-14T15:13:55.732Z,100.00
2022-11-14T15:16:45.492Z,100.00
2022-11-14T15:19:40.112Z,100.00
2022-11-14T15:22:29.982Z,100.00
2022-11-14T15:25:21.249Z,100.00
2022-11-14T15:28:17.164Z,100.00
2022-11-14T15:31:05.964Z,100.00
2022-11-14T15:34:07.151Z,100.00
2022-11-14T15:37:20.644Z,100.00
2022-11-14T15:40:18.655Z,100.00
2022-11-14T15:43:37.431Z,100.00
2022-11-14T15:46:28.700Z,100.00
2022-11-14T15:49:22.420Z,100.00
2022-11-14T15:52:20.076Z,100.00
2022-11-14T15:55:14.565Z,100.00
2022-11-14T16:01:16.345Z,100.00
2022-11-14T16:04:04.979Z,100.00
2022-11-14T16:06:53.451Z,100.00
2022-11-14T16:09:43.459Z,100.00
2022-11-14T16:12:31.928Z,100.00
2022-11-14T16:15:21.499Z,100.00
2022-11-14T16:18:11.895Z,100.00
2022-11-14T16:21:00.381Z,100.00
2022-11-14T16:23:49.902Z,100.00
2022-11-14T16:26:41.039Z,100.00
2022-11-14T16:29:29.542Z,100.00
2022-11-14T16:32:18.044Z,100.00
2022-11-14T16:35:08.585Z,100.00
2022-11-14T16:37:57.297Z,100.00
2022-11-14T16:40:45.797Z,100.00
2022-11-14T16:43:35.665Z,100.00
2022-11-14T16:46:24.602Z,100.00
2022-11-14T16:49:15.405Z,100.00
2022-11-14T16:52:08.417Z,100.00
2022-11-14T16:54:56.860Z,100.00
2022-11-14T16:57:45.349Z,100.00
2022-11-14T17:00:35.763Z,100.00
2022-11-14T17:03:24.242Z,100.00
2022-11-14T17:06:12.682Z,100.00
2022-11-14T17:09:01.675Z,100.00
2022-11-14T17:11:50.102Z,100.00
2022-11-14T17:14:38.535Z,100.00
2022-11-14T17:17:28.326Z,100.00
2022-11-14T17:20:18.061Z,100.00
2022-11-14T17:23:06.565Z,100.00
2022-11-14T17:26:02.346Z,100.00
2022-11-14T17:28:50.770Z,100.00
2022-11-14T17:31:44.445Z,100.00
2022-11-14T17:34:36.557Z,100.00
2022-11-14T17:37:25.027Z,100.00
2022-11-14T17:40:15.658Z,100.00
2022-11-14T17:43:04.421Z,100.00
2022-11-14T17:45:56.467Z,100.00
2022-11-14T17:48:45.133Z,100.00
2022-11-14T17:51:34.970Z,100.00
2022-11-14T17:54:23.444Z,100.00
2022-11-14T17:57:13.186Z,100.00
2022-11-14T18:00:03.293Z,100.00
2022-11-14T18:02:52.290Z,100.00
2022-11-14T18:05:40.743Z,100.00
2022-11-14T18:08:30.864Z,100.00
2022-11-14T18:11:20.477Z,100.00
2022-11-14T18:14:09.171Z,100.00
2022-11-14T18:17:12.161Z,100.00
2022-11-14T18:20:01.546Z,100.00
2022-11-14T18:22:49.980Z,100.00
2022-11-14T18:25:39.845Z,100.00
2022-11-14T18:28:28.476Z,100.00
2022-11-14T18:31:17.070Z,100.00
2022-11-14T18:34:05.692Z,100.00
2022-11-14T18:36:54.177Z,100.00
2022-11-14T18:39:42.629Z,100.00
2022-11-14T18:42:32.434Z,100.00
2022-11-14T18:45:20.932Z,100.00
2022-11-14T18:48:09.417Z,100.00
2022-11-14T18:51:01.741Z,100.00
2022-11-14T18:53:51.246Z,100.00
2022-11-14T18:56:39.980Z,100.00
2022-11-14T18:59:29.798Z,100.00
2022-11-14T19:02:18.309Z,100.00
2022-11-14T19:05:06.983Z,100.00
2022-11-14T19:07:55.464Z,100.00
2022-11-14T19:10:43.920Z,100.00
2022-11-14T19:13:32.763Z,100.00
2022-11-14T19:16:22.961Z,100.00
2022-11-14T19:19:12.058Z,100.00
2022-11-14T19:22:00.514Z,100.00
2022-11-14T19:24:48.981Z,100.00
2022-11-14T19:27:37.529Z,100.00
2022-11-14T19:30:26.001Z,100.00
2022-11-14T19:33:15.902Z,100.00
2022-11-14T19:36:08.596Z,100.00
2022-11-14T19:38:58.374Z,100.00
2022-11-14T19:41:46.852Z,100.00
2022-11-14T19:44:35.360Z,100.00
2022-11-14T19:47:23.948Z,100.00
2022-11-14T19:50:15.237Z,100.00
2022-11-14T19:53:04.182Z,100.00
2022-11-14T19:55:52.790Z,100.00
2022-11-14T19:58:42.855Z,100.00
2022-11-14T20:01:31.469Z,100.00
2022-11-14T20:04:20.068Z,100.00
2022-11-14T20:07:10.382Z,100.00
2022-11-14T20:09:59.042Z,100.00
2022-11-14T20:12:47.623Z,100.00
2022-11-14T20:15:36.176Z,100.00
2022-11-14T20:18:24.725Z,100.00
2022-11-14T20:21:14.807Z,100.00
2022-11-14T20:24:05.001Z,100.00
2022-11-14T20:26:53.599Z,100.00
2022-11-14T20:29:42.149Z,100.00
2022-11-14T20:32:30.710Z,100.00
2022-11-14T20:35:19.275Z,100.00
2022-11-14T20:38:08.408Z,100.00
2022-11-14T20:40:59.097Z,100.00
2022-11-14T20:43:48.144Z,100.00
2022-11-14T20:46:36.841Z,100.00
2022-11-14T20:49:25.429Z,100.00
2022-11-14T20:52:15.126Z,100.00
2022-11-14T20:55:08.913Z,100.00
2022-11-14T20:58:01.444Z,100.00
2022-11-14T21:00:50.353Z,100.00
2022-11-14T21:03:39.364Z,100.00
2022-11-14T21:06:28.162Z,100.00
2022-11-14T21:09:16.891Z,100.00
2022-11-14T21:12:05.959Z,100.00
2022-11-14T21:14:55.818Z,100.00
2022-11-14T21:17:44.255Z,100.00
2022-11-14T21:20:32.707Z,100.00
2022-11-14T21:23:21.180Z,100.00
2022-11-14T21:26:11.321Z,100.00
2022-11-14T21:29:01.744Z,100.00
2022-11-14T21:31:51.559Z,100.00
2022-11-14T21:34:40.149Z,100.00
2022-11-14T21:37:28.604Z,100.00
2022-11-14T21:40:17.342Z,100.00
2022-11-14T21:43:05.775Z,100.00
2022-11-14T21:45:55.984Z,100.00
2022-11-14T21:48:47.743Z,100.00
2022-11-14T21:51:36.233Z,100.00
2022-11-14T21:54:24.650Z,100.00
2022-11-14T21:57:13.109Z,100.00
2022-11-14T22:00:01.563Z,100.00
2022-11-14T22:03:07.541Z,100.00
2022-11-14T22:05:58.018Z,100.00
2022-11-14T22:08:46.437Z,100.00
2022-11-14T22:11:35.158Z,100.00
2022-11-14T22:14:23.919Z,100.00
2022-11-14T22:17:12.327Z,100.00
2022-11-14T22:20:00.770Z,100.00
2022-11-14T22:22:54.770Z,100.00
2022-11-14T22:25:43.213Z,100.00
2022-11-14T22:28:31.817Z,100.00
2022-11-14T22:31:22.382Z,100.00
2022-11-14T22:34:12.081Z,100.00
2022-11-14T22:37:00.558Z,100.00
2022-11-14T22:39:50.344Z,100.00
2022-11-14T22:42:38.752Z,100.00
2022-11-14T22:45:27.181Z,100.00
2022-11-14T22:48:15.657Z,100.00
2022-11-14T22:51:06.766Z,100.00
2022-11-14T22:53:57.076Z,100.00
2022-11-14T22:56:46.923Z,100.00
2022-11-14T22:59:35.368Z,100.00
2022-11-14T23:02:23.793Z,100.00
2022-11-14T23:05:12.273Z,100.00
2022-11-14T23:08:00.717Z,100.00
2022-11-14T23:10:49.202Z,100.00
2022-11-14T23:13:39.799Z,100.00
2022-11-14T23:16:30.132Z,100.00
2022-11-14T23:19:18.580Z,100.00
2022-11-14T23:22:07.016Z,100.00
2022-11-14T23:24:55.442Z,100.00
2022-11-14T23:27:43.871Z,100.00
2022-11-14T23:30:35.239Z,100.00
2022-11-14T23:33:23.678Z,100.00
2022-11-14T23:36:12.130Z,100.00
2022-11-14T23:39:00.592Z,100.00
2022-11-14T23:41:49.038Z,100.00
2022-11-14T23:44:37.510Z,100.00
2022-11-14T23:47:29.471Z,100.00
2022-11-14T23:50:18.208Z,100.00
2022-11-14T23:53:10.872Z,100.00
2022-11-14T23:56:02.294Z,100.00
2022-11-14T23:58:51.533Z,100.00
